Main page
METAR-TAF:

Airports :

Birmingham, England

Birmingham Airport

latitude: 52-27N, longitude: 001-44W, elevation: 99 m

Current weather observation

The report was made 37 minutes ago, at 11:50 UTC
Wind 2 kt from variable directions
Temperature 13°C
Humidity 72%
Pressure 1016 hPa
Visibility 10 km or more
Broken clouds at a height of 3000 ft
Overcast at a height of 3500 ft

METAR: EGBB 261150Z VRB02KT 9999 BKN030 OVC035 13/08 Q1016

Time: 13:27 (12:27 UTC)

Forecast

The report was made 1 hour and 27 minutes ago, at 11:00 UTC
Forecast valid from 26 at 12 UTC to 27 at 12 UTC
Wind 4 kt from variable directions
Visibility 10 km or more
Scattered clouds at a height of 2500 ft
Probability 30%
from 27 at 00 UTC to 27 at 07 UTC
Visibility: 7000 m

TAF: EGBB 261100Z 2612/2712 VRB04KT 9999 SCT025 PROB30 2700/2707 7000

METAR-TAF

Weather observations and forecasts of more than 4000 airports (METAR and TAF reports).

The available stations are represented by yellow and red dots on the map.

Hover mouse over dot to see the name of the station.

Then click to see weather observations and forecasts.

To change the map : click on the green buttons with a black cross to zoom in, on the green button with a dash to zoom out, or on the green arrows for adjacent maps.


METAR-TAF: